createdAt,value
2019-05-22T04:47:58.473Z,88.31
2019-05-22T04:50:25.929Z,87.81
2019-05-22T04:52:52.710Z,87.23
2019-05-22T04:55:20.294Z,87.01
2019-05-22T04:57:47.660Z,86.67
2019-05-22T05:00:16.053Z,86.19
2019-05-22T05:02:43.030Z,86.01
2019-05-22T05:05:11.107Z,86.26
2019-05-22T05:07:59.918Z,86.16
2019-05-22T05:10:26.907Z,86.58
2019-05-22T05:12:57.244Z,86.92
2019-05-22T05:15:23.937Z,86.71
2019-05-22T05:17:51.215Z,86.56
2019-05-22T05:20:22.555Z,85.84
2019-05-22T05:22:47.974Z,85.67
2019-05-22T05:25:16.398Z,85.85
2019-05-22T05:27:43.994Z,85.98
2019-05-22T05:30:13.081Z,86.05
2019-05-22T05:32:40.375Z,86.30
2019-05-22T05:35:08.468Z,86.61
2019-05-22T05:37:35.927Z,86.37
2019-05-22T05:40:35.504Z,86.09
2019-05-22T05:43:03.316Z,86.06
2019-05-22T05:45:32.011Z,86.43
2019-05-22T05:47:59.583Z,86.41
2019-05-22T05:50:38.812Z,85.99
2019-05-22T05:52:57.714Z,84.99
2019-05-22T05:55:28.022Z,84.71
2019-05-22T05:58:25.831Z,84.50
2019-05-22T06:00:55.805Z,84.35
2019-05-22T06:03:37.984Z,84.42
2019-05-22T06:07:00.082Z,83.70
2019-05-22T06:09:26.705Z,84.24
2019-05-22T06:11:56.271Z,84.99
2019-05-22T06:14:26.659Z,85.70
2019-05-22T06:17:51.088Z,86.60
2019-05-22T06:20:18.563Z,86.48
2019-05-22T06:23:25.717Z,86.29
2019-05-22T06:25:52.839Z,85.52
2019-05-22T06:28:19.602Z,84.71
2019-05-22T06:30:46.592Z,84.82
2019-05-22T06:33:44.366Z,83.96
2019-05-22T06:36:17.793Z,83.40
2019-05-22T06:38:51.695Z,84.29
2019-05-22T06:41:19.515Z,84.28
2019-05-22T06:44:36.635Z,84.28
2019-05-22T06:47:06.245Z,85.08
2019-05-22T06:49:38.687Z,86.74
2019-05-22T06:52:27.243Z,86.67
2019-05-22T06:54:55.146Z,86.25
2019-05-22T06:57:26.498Z,86.67
2019-05-22T07:00:12.467Z,87.34
2019-05-22T07:02:27.310Z,86.96
2019-05-22T07:05:15.509Z,87.09
2019-05-22T07:07:42.491Z,87.20
2019-05-22T07:10:11.925Z,85.77
2019-05-22T07:15:49.626Z,84.14
2019-05-22T07:18:23.497Z,83.38
2019-05-22T07:20:51.681Z,83.06
2019-05-22T07:23:27.871Z,84.04
2019-05-22T07:25:56.884Z,84.75
2019-05-22T07:28:24.785Z,84.63
2019-05-22T07:30:51.947Z,84.98
2019-05-22T07:33:18.753Z,85.00
2019-05-22T07:36:05.516Z,84.63
2019-05-22T07:38:16.388Z,86.96
2019-05-22T07:40:43.674Z,87.68
2019-05-22T07:43:10.595Z,88.43
2019-05-22T07:45:37.891Z,88.36
2019-05-22T07:48:07.304Z,88.42
2019-05-22T07:50:37.777Z,88.15
2019-05-22T07:53:05.762Z,88.86
2019-05-22T07:55:33.355Z,87.95
2019-05-22T07:58:04.902Z,87.75
2019-05-22T08:00:32.088Z,87.20
2019-05-22T08:02:59.236Z,87.48
2019-05-22T08:05:27.922Z,86.45
2019-05-22T08:07:57.804Z,87.06
2019-05-22T08:10:25.020Z,86.50
2019-05-22T08:12:52.368Z,86.00
2019-05-22T08:15:20.672Z,86.37
2019-05-22T08:17:47.527Z,86.52
2019-05-22T08:20:14.821Z,86.06
2019-05-22T08:22:42.700Z,84.46
2019-05-22T08:25:09.788Z,85.76
2019-05-22T08:27:36.666Z,85.61
2019-05-22T08:30:04.300Z,85.96
2019-05-22T08:32:31.764Z,85.67
2019-05-22T08:34:59.157Z,85.09
2019-05-22T08:37:30.417Z,84.52
2019-05-22T08:39:57.918Z,84.51
2019-05-22T08:42:25.411Z,84.30
2019-05-22T08:44:52.144Z,83.93
2019-05-22T08:47:19.951Z,82.86
2019-05-22T08:49:46.747Z,81.72
2019-05-22T08:52:23.105Z,81.98
2019-05-22T08:54:46.133Z,82.36
2019-05-22T08:57:13.158Z,82.34
2019-05-22T08:59:41.819Z,82.71
2019-05-22T09:02:08.604Z,82.21
2019-05-22T09:04:35.653Z,81.31
2019-05-22T09:07:02.328Z,81.21
2019-05-22T09:09:29.760Z,79.47
2019-05-22T09:11:56.620Z,77.47
2019-05-22T09:14:23.525Z,77.49
2019-05-22T09:16:51.285Z,76.11
2019-05-22T09:19:19.262Z,77.97
2019-05-22T09:21:46.445Z,80.37
2019-05-22T09:24:16.459Z,80.94
2019-05-22T09:26:44.138Z,81.03
2019-05-22T09:29:10.945Z,80.43
2019-05-22T09:31:38.031Z,79.37
2019-05-22T09:34:04.831Z,78.90
2019-05-22T09:36:32.286Z,79.06
2019-05-22T09:38:59.073Z,78.33
2019-05-22T09:41:26.623Z,78.94
2019-05-22T09:43:53.441Z,77.28
2019-05-22T09:46:20.462Z,74.34
2019-05-22T09:48:48.049Z,73.72
2019-05-22T09:51:14.937Z,70.83
2019-05-22T09:53:42.704Z,67.70
2019-05-22T09:56:09.995Z,64.46
2019-05-22T09:58:38.180Z,63.71
2019-05-22T10:01:06.302Z,64.98
2019-05-22T10:03:33.484Z,65.17
2019-05-22T10:06:02.717Z,66.45
2019-05-22T10:08:29.863Z,70.01
2019-05-22T10:10:56.949Z,69.92
2019-05-22T10:13:23.685Z,71.78
2019-05-22T10:15:51.135Z,71.18
2019-05-22T10:18:18.255Z,71.92
2019-05-22T10:20:45.421Z,72.55
2019-05-22T10:23:15.974Z,72.17
2019-05-22T10:25:41.207Z,69.80
2019-05-22T10:28:08.276Z,68.85
2019-05-22T10:30:36.334Z,67.54
2019-05-22T10:33:03.405Z,66.42
2019-05-22T10:35:33.126Z,62.88
2019-05-22T10:37:59.998Z,59.86
2019-05-22T10:40:27.481Z,61.10
2019-05-22T10:42:55.730Z,62.75
2019-05-22T10:45:22.535Z,62.52
2019-05-22T10:47:49.486Z,59.90
2019-05-22T10:50:16.505Z,57.62
2019-05-22T10:52:53.687Z,56.69
2019-05-22T10:55:18.317Z,58.22
2019-05-22T10:57:45.032Z,58.81
2019-05-22T11:00:14.462Z,58.47
2019-05-22T11:02:42.909Z,60.25
2019-05-22T11:05:10.400Z,60.66
2019-05-22T11:07:37.223Z,62.09
2019-05-22T11:10:05.240Z,60.08
2019-05-22T11:12:31.922Z,59.95
2019-05-22T11:17:47.037Z,61.17
2019-05-22T11:20:16.295Z,61.50
2019-05-22T11:22:43.470Z,64.66
2019-05-22T11:25:13.141Z,64.10
2019-05-22T11:28:01.611Z,64.41
2019-05-22T11:30:28.672Z,66.28
2019-05-22T11:32:56.168Z,67.99
2019-05-22T11:35:23.955Z,67.03
2019-05-22T11:37:50.911Z,67.73
2019-05-22T11:40:19.803Z,67.47
2019-05-22T11:42:47.495Z,63.34
2019-05-22T11:45:15.281Z,58.81
2019-05-22T11:47:42.329Z,53.58
2019-05-22T11:50:10.405Z,51.31
2019-05-22T11:52:37.523Z,52.52
2019-05-22T11:55:05.203Z,53.52
2019-05-22T11:57:33.319Z,55.67
2019-05-22T12:00:00.109Z,55.07
2019-05-22T12:02:27.198Z,55.54
2019-05-22T12:04:53.954Z,55.22
2019-05-22T12:07:21.083Z,54.55
2019-05-22T12:09:48.301Z,52.05
2019-05-22T12:12:15.711Z,56.06
2019-05-22T12:14:42.873Z,57.99
2019-05-22T12:17:10.994Z,57.32
2019-05-22T12:19:38.770Z,55.93
2019-05-22T12:22:07.162Z,57.69
2019-05-22T12:24:37.202Z,59.44
2019-05-22T12:27:04.167Z,59.31
2019-05-22T12:29:31.239Z,60.77
2019-05-22T12:31:58.023Z,61.29
2019-05-22T12:34:25.060Z,60.60
2019-05-22T12:36:51.955Z,57.77
2019-05-22T12:39:20.502Z,56.17
2019-05-22T12:41:47.999Z,56.62
2019-05-22T12:44:17.588Z,56.87
2019-05-22T12:46:44.407Z,57.22
2019-05-22T12:49:12.994Z,56.07
2019-05-22T12:51:40.185Z,57.78
2019-05-22T12:54:07.839Z,59.84
2019-05-22T12:56:34.630Z,60.38
2019-05-22T12:59:02.304Z,58.87
2019-05-22T13:01:30.717Z,52.62
2019-05-22T13:03:58.555Z,45.43
2019-05-22T13:06:25.747Z,46.16
2019-05-22T13:08:54.563Z,49.22
2019-05-22T13:11:26.073Z,47.31
2019-05-22T13:13:53.008Z,49.89
2019-05-22T13:16:19.991Z,48.87
2019-05-22T13:18:46.799Z,47.92
2019-05-22T13:21:17.990Z,46.10
2019-05-22T13:23:46.371Z,48.87
2019-05-22T13:26:14.843Z,49.12
2019-05-22T13:28:44.085Z,46.57
2019-05-22T13:31:11.036Z,44.30
2019-05-22T13:33:39.427Z,40.99
2019-05-22T13:36:06.223Z,41.05
2019-05-22T13:38:33.503Z,39.13
2019-05-22T13:41:00.976Z,34.34
2019-05-22T13:43:28.051Z,30.12
2019-05-22T13:45:55.217Z,29.87
2019-05-22T13:48:21.981Z,31.17
2019-05-22T13:50:49.414Z,36.22
2019-05-22T13:53:17.310Z,37.69
2019-05-22T13:55:44.808Z,32.71
2019-05-22T13:58:12.008Z,28.64
2019-05-22T14:00:39.391Z,32.56
2019-05-22T14:03:07.117Z,35.58
2019-05-22T14:05:34.752Z,36.33
2019-05-22T14:08:02.144Z,36.97
2019-05-22T14:10:30.720Z,37.33
2019-05-22T14:12:57.814Z,38.08
2019-05-22T14:15:24.978Z,38.82
2019-05-22T14:17:51.868Z,38.08
2019-05-22T14:23:13.808Z,37.51
2019-05-22T14:25:40.859Z,37.29
2019-05-22T14:28:08.151Z,35.31
2019-05-22T14:30:35.005Z,33.38
2019-05-22T14:33:04.875Z,32.92
2019-05-22T14:35:47.480Z,32.28
2019-05-22T14:38:04.351Z,27.40
2019-05-22T14:40:31.308Z,24.72
2019-05-22T14:42:58.095Z,25.62
2019-05-22T14:45:24.961Z,22.66
2019-05-22T14:47:51.796Z,23.57
2019-05-22T14:50:20.105Z,21.75
2019-05-22T14:52:47.275Z,23.33
2019-05-22T14:55:15.367Z,22.40
2019-05-22T14:57:42.134Z,23.90
2019-05-22T15:00:11.904Z,24.53
2019-05-22T15:02:38.674Z,25.57
2019-05-22T15:05:06.146Z,24.71
2019-05-22T15:07:32.960Z,22.56
2019-05-22T15:09:59.759Z,24.45
2019-05-22T15:12:27.131Z,27.21
2019-05-22T15:14:53.932Z,29.49
2019-05-22T15:17:31.602Z,27.18
2019-05-22T15:19:49.410Z,24.40
2019-05-22T15:22:16.474Z,24.07
2019-05-22T15:24:43.633Z,25.51
2019-05-22T15:27:11.822Z,28.60
2019-05-22T15:29:38.592Z,31.07
2019-05-22T15:32:05.576Z,32.56
2019-05-22T15:34:33.324Z,31.45
2019-05-22T15:37:00.771Z,28.23
2019-05-22T15:39:30.058Z,27.15
2019-05-22T15:41:58.594Z,25.04
2019-05-22T15:44:26.282Z,23.67
2019-05-22T15:46:53.055Z,26.05
2019-05-22T15:49:20.445Z,24.38
2019-05-22T15:51:48.014Z,25.64
2019-05-22T15:54:17.113Z,25.36
2019-05-22T15:56:46.060Z,25.17
2019-05-22T15:59:16.111Z,23.79
2019-05-22T16:01:44.844Z,24.50
2019-05-22T16:04:15.055Z,24.33
2019-05-22T16:06:42.310Z,23.87
2019-05-22T16:09:12.620Z,25.75
2019-05-22T16:11:39.922Z,25.00
2019-05-22T16:14:06.835Z,26.42
2019-05-22T16:16:35.390Z,25.83
2019-05-22T16:19:04.667Z,27.04
2019-05-22T16:21:32.854Z,30.18
2019-05-22T16:24:00.559Z,31.02
2019-05-22T16:26:29.272Z,32.75
2019-05-22T16:28:57.155Z,34.01
2019-05-22T16:31:25.619Z,36.97
2019-05-22T16:33:53.592Z,35.67
2019-05-22T16:36:22.305Z,37.31
2019-05-22T16:38:51.182Z,36.39
2019-05-22T16:41:19.094Z,37.46
2019-05-22T16:43:50.171Z,36.82
2019-05-22T16:46:19.903Z,37.92
2019-05-22T16:48:48.065Z,39.13
2019-05-22T16:51:16.961Z,39.01
2019-05-22T16:53:49.938Z,37.70
2019-05-22T16:56:17.798Z,38.55
2019-05-22T16:58:44.550Z,39.30
2019-05-22T17:01:11.334Z,39.93
2019-05-22T17:03:38.306Z,40.29
2019-05-22T17:06:06.142Z,40.26
2019-05-22T17:08:33.019Z,40.14
2019-05-22T17:11:00.973Z,40.25
2019-05-22T17:13:28.693Z,40.67
2019-05-22T17:15:56.410Z,41.13
2019-05-22T17:18:23.814Z,41.24
2019-05-22T17:20:51.133Z,41.85
2019-05-22T17:23:17.910Z,41.86
2019-05-22T17:25:44.805Z,41.97
2019-05-22T17:28:11.849Z,43.15
2019-05-22T17:30:39.454Z,43.70
2019-05-22T17:33:06.970Z,44.18
2019-05-22T17:35:34.426Z,44.32
2019-05-22T17:38:03.120Z,44.09
2019-05-22T17:40:31.321Z,43.83
2019-05-22T17:42:58.602Z,44.55
2019-05-22T17:45:27.554Z,44.76
2019-05-22T17:47:55.396Z,45.37
2019-05-22T17:50:27.127Z,45.55
2019-05-22T17:52:53.024Z,45.01
2019-05-22T17:55:20.134Z,44.79
2019-05-22T17:57:47.082Z,46.21
2019-05-22T18:00:24.643Z,45.95
2019-05-22T18:02:51.413Z,45.74
2019-05-22T18:05:18.895Z,46.44
2019-05-22T18:07:46.259Z,47.63
2019-05-22T18:10:13.847Z,48.47
2019-05-22T18:12:41.213Z,52.06
2019-05-22T18:15:10.354Z,54.22
2019-05-22T18:17:37.903Z,56.62
2019-05-22T18:20:05.141Z,58.92
2019-05-22T18:22:32.395Z,58.41
2019-05-22T18:24:59.879Z,59.27
2019-05-22T18:27:26.975Z,59.08
2019-05-22T18:29:53.854Z,58.02
2019-05-22T18:32:20.644Z,57.10
2019-05-22T18:34:47.331Z,58.00
2019-05-22T18:37:14.088Z,59.19
2019-05-22T18:39:40.781Z,60.77
2019-05-22T18:42:07.760Z,61.62
2019-05-22T18:44:34.420Z,62.35
2019-05-22T18:47:01.338Z,63.21
2019-05-22T18:49:28.025Z,65.21
2019-05-22T18:51:54.827Z,66.42
2019-05-22T18:54:21.584Z,66.36
2019-05-22T18:56:48.262Z,66.86
2019-05-22T18:59:15.124Z,67.65
2019-05-22T19:01:41.905Z,68.66
2019-05-22T19:04:08.692Z,69.25
2019-05-22T19:06:35.522Z,68.42
2019-05-22T19:09:03.938Z,67.60
2019-05-22T19:11:31.019Z,67.78
2019-05-22T19:13:57.822Z,67.11
2019-05-22T19:16:24.578Z,66.87
2019-05-22T19:18:51.431Z,66.69
2019-05-22T19:21:18.256Z,67.05
2019-05-22T19:23:45.091Z,67.41
2019-05-22T19:26:11.887Z,66.92
2019-05-22T19:28:43.989Z,67.68
2019-05-22T19:31:08.370Z,66.93
2019-05-22T19:33:35.349Z,67.03
2019-05-22T19:36:03.037Z,66.83
2019-05-22T19:38:29.900Z,66.71
2019-05-22T19:40:57.308Z,67.41
2019-05-22T19:43:24.391Z,67.81
2019-05-22T19:45:51.229Z,68.36
2019-05-22T19:48:18.082Z,67.40
2019-05-22T19:50:45.275Z,67.72
2019-05-22T19:53:18.948Z,68.50
2019-05-22T19:55:41.278Z,69.24
2019-05-22T19:58:08.578Z,69.67
2019-05-22T20:00:38.717Z,70.43
2019-05-22T20:03:05.743Z,70.93
2019-05-22T20:05:34.612Z,71.95
2019-05-22T20:08:01.587Z,72.37
2019-05-22T20:10:28.303Z,72.42
2019-05-22T20:12:55.442Z,73.37
2019-05-22T20:15:22.209Z,73.86
2019-05-22T20:20:30.342Z,75.13
2019-05-22T20:22:58.793Z,75.65
2019-05-22T20:25:26.168Z,76.29
2019-05-22T20:27:53.716Z,76.56
2019-05-22T20:30:22.108Z,76.93
2019-05-22T20:32:49.391Z,77.16
2019-05-22T20:35:16.991Z,77.53
2019-05-22T20:37:45.777Z,77.66
2019-05-22T20:40:15.058Z,78.27
2019-05-22T20:42:43.584Z,78.36
2019-05-22T20:45:12.512Z,78.42
2019-05-22T20:47:41.286Z,77.38
2019-05-22T20:50:09.541Z,77.91
2019-05-22T20:52:37.718Z,78.50
2019-05-22T20:55:06.368Z,78.88
2019-05-22T20:57:33.073Z,77.85
2019-05-22T21:02:50.123Z,78.45
2019-05-22T21:05:19.814Z,78.77
2019-05-22T21:07:49.194Z,78.95
2019-05-22T21:10:16.872Z,79.45
2019-05-22T21:12:45.838Z,79.75
2019-05-22T21:15:13.424Z,80.19
2019-05-22T21:17:40.533Z,79.57
2019-05-22T21:20:10.084Z,80.35
2019-05-22T21:22:37.923Z,80.62
2019-05-22T21:25:06.012Z,80.66
2019-05-22T21:27:33.350Z,80.38
2019-05-22T21:30:00.042Z,80.84
2019-05-22T21:32:26.633Z,80.52
2019-05-22T21:34:54.520Z,81.17
2019-05-22T21:37:21.986Z,81.62
2019-05-22T21:39:50.001Z,81.75
2019-05-22T21:42:17.384Z,82.56
2019-05-22T21:44:44.110Z,83.06
2019-05-22T21:47:12.996Z,83.12
2019-05-22T21:49:40.278Z,83.35
2019-05-22T21:52:07.741Z,83.76
2019-05-22T21:54:35.629Z,84.15
2019-05-22T21:57:04.314Z,84.40
2019-05-22T21:59:31.012Z,84.85
2019-05-22T22:02:12.609Z,85.36
2019-05-22T22:04:40.623Z,86.30
2019-05-22T22:07:08.790Z,86.86
2019-05-22T22:09:35.824Z,87.03
2019-05-22T22:12:03.508Z,86.81
2019-05-22T22:14:30.803Z,86.72
2019-05-22T22:16:59.348Z,86.79
2019-05-22T22:19:28.327Z,86.66
2019-05-22T22:21:55.440Z,86.49
2019-05-22T22:24:22.672Z,86.40
2019-05-22T22:26:49.798Z,86.19
2019-05-22T22:29:16.814Z,86.33
2019-05-22T22:31:45.287Z,86.89
2019-05-22T22:34:18.440Z,87.06
2019-05-22T22:36:46.689Z,87.36
2019-05-22T22:39:14.669Z,88.10
2019-05-22T22:41:42.215Z,88.73
2019-05-22T22:44:09.598Z,89.11
2019-05-22T22:46:42.602Z,89.25
2019-05-22T22:49:14.052Z,89.10
2019-05-22T22:51:40.800Z,89.38
2019-05-22T22:54:07.491Z,89.43
2019-05-22T22:56:34.823Z,89.34
2019-05-22T22:59:03.604Z,89.47
2019-05-22T23:01:52.865Z,89.57
2019-05-22T23:04:23.806Z,89.55
2019-05-22T23:07:12.637Z,89.51
2019-05-22T23:09:41.966Z,89.60
2019-05-22T23:12:09.229Z,90.08
2019-05-22T23:14:39.881Z,90.30
2019-05-22T23:17:06.260Z,90.23
2019-05-22T23:19:38.155Z,90.46
2019-05-22T23:22:05.244Z,90.40
2019-05-22T23:24:36.824Z,90.54
2019-05-22T23:27:06.080Z,90.49
2019-05-22T23:29:34.165Z,90.51
2019-05-22T23:32:01.738Z,90.36
2019-05-22T23:34:28.655Z,90.35
2019-05-22T23:36:57.427Z,90.32
2019-05-22T23:39:25.903Z,90.42
2019-05-22T23:41:56.503Z,90.47
2019-05-22T23:47:04.871Z,90.79
2019-05-22T23:49:31.904Z,90.87
2019-05-22T23:51:58.566Z,90.79
2019-05-22T23:54:26.670Z,90.87
2019-05-22T23:56:53.527Z,90.96
2019-05-22T23:59:20.611Z,91.05
